Airport ID:KJTC
Update Time (UTC):08/12/2021 09:52
Wind Speed (Knots):5
Wind Direction (Magnetic):190
Temperature (°C):-2
Dew Point (°C):-10
Humidity (%):58
Altimeter (inHg):30.15
Density Altitude (Feet):
Visibility:10+
Clouds (Hundreds of feet):CLR
Present Weather:
METAR:METAR KJTC 080950Z AUTO 21004KT 10SM CLR M02/M10 A3015 RMK AO2

The data displayed is for advisory purposes only and is not to be used for flight planning or operations.